Huachuca City, AZ (85616)

10:46 AM MST del 22 Dicembre 2014 (GMT -0700)
Lower Huachuca City | Change Station
CLOSE
Current Station
Stazione meteo personale
Location: Huachuca City, AZ
Altitudine: 4251 ft
Stazioni meteo nelle vicinanze

Alt. 4251 ft 31.64 °N, 110.34 °W | Updated 20 seconds ago

Sereno
Sereno
56.9 °F
Sembra 56.9 °F
N
4.9
Vento Variabile Vento da ENE
Gusts 5.4 mph

Oggi
Massima -- | Minima -- °F
--% Possibilità di precip.
Ieri
Massima -- | Minima -- °F
Precip. -- in
7:17 AM 5:22 PM
Luna nuova, 1% visible
Pressione 30.02 in
Visibilità 10.0 miglia
Nuvole Coperto 30000 ft
Punto di rugiada 37 °F
Umidità 48%
Piovosità 0.00 in
Spessore del manto nevoso Non disponibile.
Raggi UV 0 fuori da 12
Polline 5.50 fuori da 12
Qualità dell'aria Non disponibile.
Flu Activity Non disponibile.
METAR KFHU 221455Z 15003KT 10SM OVC300 04/01 A3004 RMK SLP164 50002

More Conditions Fewer Conditions

Pressione 30.02 in
Visibilità 10.0 miglia
Nuvole Coperto 30000 ft
Punto di rugiada 37 °F
Umidità 48%
Piovosità 0.00 in
Spessore del manto nevoso Non disponibile.
Raggi UV 0 fuori da 12
Polline 5.50 fuori da 12
Qualità dell'aria Non disponibile.
Flu Activity Non disponibile.
METAR KFHU 221455Z 15003KT 10SM OVC300 04/01 A3004 RMK SLP164 50002

More Conditions Fewer Conditions

10-Day Weather Forecast

Almanac

Astronomia

Dec. 22, 2014 Alba Tramonto
Ora attuale
Crepuscolo civile
Crepuscolo nautico
Crepuscolo astronomico
Luna
Estensione della luce visibile
Lunghezza del giorno
Tomorrow will be .
, % of the Moon is Illuminated

Gli estremi di oggi

State Highs State Lows

Community

WunderPhotos

Upload Photos

1,779,655 foto caricate!

WunderBlogs® & News

Nearby

Qualità dell'aria

  Qualità dell'aria Indice AQ Inquinante
Not available.

Profondità neve

Stazione Profondità Altitudine

Attività sismica

Città  Distanza Mag. Data & Ora
Minimo Magnitudo Mostrato è 2.5.

Temperature delle acque costiere

Località Temperatura

Stazioni meteo nelle vicinanze